Time;durP1;ratioP1;P1;durP2;ratioP2;P2;SDS_P1;SDS_P2;PMS_P1;PMS_P2;Temp;Humidity;BMP_temperature;BMP_pressure;BME280_temperature;BME280_humidity;BME280_pressure;Samples;Min_cycle;Max_cycle;Signal;HPM_P1;HPM_P2
2023/07/07 00:00:24;;;;;;;1.50;1.40;;;24.10;79.50;;;;;;4976899;28;21032;-89
2023/07/07 00:02:51;;;;;;;1.80;1.50;;;24.20;79.40;;;;;;4973596;28;20447;-84
2023/07/07 00:05:19;;;;;;;2.23;1.43;;;24.20;79.50;;;;;;4977181;28;20451;-84
2023/07/07 00:07:48;;;;;;;1.60;1.50;;;24.20;79.60;;;;;;4977083;28;20448;-85
2023/07/07 00:10:15;;;;;;;1.50;1.40;;;24.20;79.50;;;;;;4976821;28;20448;-84
2023/07/07 00:12:42;;;;;;;1.87;1.77;;;24.10;79.40;;;;;;4976742;28;20793;-85
2023/07/07 00:15:10;;;;;;;2.07;1.87;;;24.10;79.50;;;;;;4976949;28;20446;-84
2023/07/07 00:17:40;;;;;;;1.77;1.27;;;24.10;79.30;;;;;;4976306;28;20455;-84
2023/07/07 00:20:09;;;;;;;2.00;1.53;;;24.10;79.50;;;;;;4976508;28;20586;-85
2023/07/07 00:22:37;;;;;;;1.97;1.77;;;24.10;79.40;;;;;;4978991;28;20448;-84
2023/07/07 00:25:04;;;;;;;1.60;1.50;;;24.10;79.50;;;;;;4976688;28;20446;-91
2023/07/07 00:27:31;;;;;;;1.93;1.33;;;24.20;79.60;;;;;;4975648;28;20482;-85
2023/07/07 00:29:58;;;;;;;1.70;1.60;;;24.10;79.50;;;;;;4975882;28;20454;-84
2023/07/07 00:32:25;;;;;;;2.00;1.60;;;24.20;79.60;;;;;;4976181;28;20471;-84
2023/07/07 00:34:55;;;;;;;1.40;1.23;;;24.20;79.60;;;;;;4976195;28;20940;-94
2023/07/07 00:37:22;;;;;;;1.70;1.50;;;24.10;79.50;;;;;;4976546;28;20447;-85
2023/07/07 00:39:49;;;;;;;1.90;1.80;;;24.10;79.50;;;;;;4976248;28;20517;-85
2023/07/07 00:42:15;;;;;;;1.57;1.47;;;24.10;79.50;;;;;;4976329;28;20456;-85
2023/07/07 00:45:13;;;;;;;1.40;1.30;;;24.10;79.40;;;;;;4976324;28;20782;-94
2023/07/07 00:47:43;;;;;;;1.30;1.10;;;24.30;79.60;;;;;;4975704;28;20773;-84
2023/07/07 00:50:13;;;;;;;1.93;1.50;;;24.10;79.50;;;;;;4975825;28;20444;-94
2023/07/07 00:52:43;;;;;;;1.70;1.60;;;24.10;79.60;;;;;;4979262;28;20445;-84
2023/07/07 00:55:14;;;;;;;1.37;1.27;;;24.10;79.50;;;;;;4974829;28;20440;-95
2023/07/07 00:57:40;;;;;;;1.97;1.40;;;24.10;79.50;;;;;;4975567;28;20455;-85
2023/07/07 01:00:09;;;;;;;1.83;1.53;;;24.10;79.50;;;;;;4975810;28;20497;-89
2023/07/07 01:02:37;;;;;;;1.53;1.43;;;24.10;79.50;;;;;;4975805;28;20443;-85
2023/07/07 01:05:05;;;;;;;1.80;1.70;;;24.10;79.50;;;;;;4975951;28;20460;-89
2023/07/07 01:07:39;;;;;;;2.00;1.63;;;24.10;79.50;;;;;;4975843;28;20515;-85
2023/07/07 01:10:07;;;;;;;1.77;1.67;;;24.20;79.70;;;;;;4961478;28;20957;-86
2023/07/07 01:12:34;;;;;;;1.60;1.50;;;24.10;79.60;;;;;;4975257;28;20445;-85
2023/07/07 01:15:03;;;;;;;1.73;1.63;;;24.10;79.40;;;;;;4975707;28;20441;-85
2023/07/07 01:17:40;;;;;;;1.50;1.20;;;24.10;79.50;;;;;;4975219;28;20488;-85
2023/07/07 01:20:17;;;;;;;1.87;1.70;;;24.10;79.40;;;;;;4956073;29;20500;-90
2023/07/07 01:23:13;;;;;;;1.47;1.37;;;24.10;79.50;;;;;;4959575;28;20535;-86
2023/07/07 01:25:59;;;;;;;1.30;1.20;;;24.10;79.50;;;;;;4974865;28;20447;-95
2023/07/07 01:28:45;;;;;;;1.30;1.20;;;24.10;79.50;;;;;;4974940;28;20461;-85
2023/07/07 01:31:16;;;;;;;2.33;1.70;;;24.10;79.50;;;;;;4975307;28;20441;-94
2023/07/07 01:33:45;;;;;;;2.40;1.47;;;24.10;79.50;;;;;;4975362;28;20448;-85
2023/07/07 01:36:11;;;;;;;1.20;1.10;;;24.10;79.60;;;;;;4975169;28;20447;-85
2023/07/07 01:38:40;;;;;;;1.63;1.30;;;24.10;79.50;;;;;;4974967;28;20449;-95
2023/07/07 01:41:16;;;;;;;1.40;1.20;;;24.10;79.50;;;;;;4975072;28;20500;-86
2023/07/07 01:43:50;;;;;;;1.40;1.30;;;24.20;79.60;;;;;;4975094;28;20452;-84
2023/07/07 01:46:28;;;;;;;1.40;1.30;;;24.10;79.40;;;;;;4974681;28;20443;-94
2023/07/07 01:49:02;;;;;;;1.60;1.50;;;24.20;79.50;;;;;;4974938;28;20455;-85
2023/07/07 01:51:35;;;;;;;1.83;1.73;;;24.00;79.40;;;;;;4974997;28;20447;-85
2023/07/07 01:54:03;;;;;;;1.30;1.17;;;24.00;79.20;;;;;;4975186;28;20444;-85
2023/07/07 01:56:32;;;;;;;1.67;1.57;;;24.00;79.00;;;;;;4975045;28;20444;-85
2023/07/07 01:58:59;;;;;;;1.87;1.40;;;24.10;79.30;;;;;;4974926;28;20462;-85
2023/07/07 02:01:28;;;;;;;1.60;1.50;;;24.00;79.00;;;;;;4975066;28;20455;-85
2023/07/07 02:03:55;;;;;;;1.73;1.63;;;24.00;79.10;;;;;;4974777;28;20445;-85
2023/07/07 02:06:22;;;;;;;1.40;1.30;;;24.00;79.00;;;;;;4974771;28;20441;-84
2023/07/07 02:08:49;;;;;;;1.50;1.40;;;24.00;79.20;;;;;;4974958;28;20538;-85
2023/07/07 02:11:15;;;;;;;1.83;1.70;;;24.00;79.20;;;;;;4974769;28;21033;-86
2023/07/07 02:13:43;;;;;;;1.47;1.37;;;24.00;79.10;;;;;;4955284;29;20526;-86
2023/07/07 02:16:09;;;;;;;2.23;1.70;;;24.00;79.10;;;;;;4962291;28;20440;-94
2023/07/07 02:18:38;;;;;;;1.60;1.50;;;24.00;79.30;;;;;;4974604;28;20448;-84
2023/07/07 02:21:05;;;;;;;1.70;1.57;;;24.00;79.40;;;;;;4976629;28;20494;-84
2023/07/07 02:23:32;;;;;;;1.83;1.30;;;24.00;79.30;;;;;;4975091;28;20446;-84
2023/07/07 02:25:59;;;;;;;1.53;1.43;;;24.00;79.10;;;;;;4974747;28;20480;-84
2023/07/07 02:28:26;;;;;;;2.30;1.73;;;24.00;79.10;;;;;;4974739;28;20559;-85
2023/07/07 02:30:54;;;;;;;1.80;1.50;;;24.00;79.20;;;;;;4974966;28;20444;-85
2023/07/07 02:33:31;;;;;;;1.73;1.60;;;24.00;79.10;;;;;;4974704;28;20447;-93
2023/07/07 02:36:01;;;;;;;1.37;1.27;;;24.00;79.20;;;;;;4975308;28;20458;-84
2023/07/07 02:38:29;;;;;;;1.93;1.70;;;24.00;79.10;;;;;;4975924;28;20436;-84
2023/07/07 02:40:56;;;;;;;2.17;1.40;;;24.00;79.10;;;;;;4975876;28;20658;-83
2023/07/07 02:43:23;;;;;;;1.80;1.70;;;24.00;79.00;;;;;;4974991;28;20442;-84
2023/07/07 02:45:50;;;;;;;1.47;1.37;;;24.00;79.10;;;;;;4956696;29;20450;-83
2023/07/07 02:48:20;;;;;;;1.60;1.33;;;24.00;79.10;;;;;;4959828;28;20453;-88
2023/07/07 02:50:54;;;;;;;1.87;1.70;;;24.00;79.00;;;;;;4976303;28;20436;-84
2023/07/07 02:53:23;;;;;;;1.90;1.30;;;24.00;79.00;;;;;;4978789;28;20439;-84
2023/07/07 02:55:50;;;;;;;1.60;1.50;;;24.00;79.00;;;;;;4978669;28;20542;-84
2023/07/07 02:58:16;;;;;;;1.57;1.40;;;24.00;79.00;;;;;;4978185;28;20479;-87
2023/07/07 03:00:44;;;;;;;1.60;1.40;;;24.00;78.90;;;;;;4978166;28;20491;-95
2023/07/07 03:03:11;;;;;;;1.50;1.30;;;24.00;79.00;;;;;;4978677;28;20510;-85
2023/07/07 03:05:37;;;;;;;1.60;1.33;;;24.00;78.90;;;;;;4978013;28;20895;-92
2023/07/07 03:08:05;;;;;;;1.73;1.40;;;24.00;78.90;;;;;;4978583;28;20948;-84
2023/07/07 03:10:33;;;;;;;1.67;1.53;;;24.00;78.90;;;;;;4978617;28;20451;-85
2023/07/07 03:13:00;;;;;;;1.73;1.63;;;24.00;78.80;;;;;;4978061;28;20897;-93
2023/07/07 03:15:29;;;;;;;1.30;1.20;;;23.90;78.70;;;;;;4978331;28;20447;-85
2023/07/07 03:17:56;;;;;;;2.27;1.47;;;24.00;78.90;;;;;;4978048;28;20455;-84
2023/07/07 03:20:26;;;;;;;1.37;1.27;;;23.90;78.70;;;;;;4977330;28;20509;-85
2023/07/07 03:22:53;;;;;;;1.60;1.50;;;24.00;78.80;;;;;;4982366;28;20486;-84
2023/07/07 03:25:20;;;;;;;1.43;1.20;;;24.00;78.90;;;;;;4997257;28;20452;-85
2023/07/07 03:27:50;;;;;;;1.57;1.47;;;23.90;78.70;;;;;;4995549;28;20482;-85
2023/07/07 03:30:18;;;;;;;1.80;1.70;;;23.90;78.70;;;;;;4992004;28;20464;-89
2023/07/07 03:32:45;;;;;;;1.70;1.00;;;23.90;78.70;;;;;;4977527;28;20460;-84
2023/07/07 03:35:11;;;;;;;2.00;1.50;;;23.90;78.80;;;;;;4977550;28;20971;-95
2023/07/07 03:37:38;;;;;;;1.30;1.20;;;24.00;78.80;;;;;;4977721;28;20443;-85
2023/07/07 03:40:07;;;;;;;1.40;1.30;;;24.00;78.90;;;;;;4977390;28;20493;-84
2023/07/07 03:42:34;;;;;;;1.60;1.43;;;24.00;78.90;;;;;;4977481;28;20450;-84
2023/07/07 03:45:02;;;;;;;1.60;1.50;;;23.90;78.70;;;;;;4978754;28;20455;-84
2023/07/07 03:47:29;;;;;;;1.90;1.60;;;24.00;78.80;;;;;;4979151;28;20448;-84
2023/07/07 03:49:56;;;;;;;1.77;1.50;;;23.90;78.60;;;;;;4977528;28;20980;-84
2023/07/07 03:52:23;;;;;;;1.60;1.40;;;23.90;78.60;;;;;;4978034;28;20444;-83
2023/07/07 03:54:50;;;;;;;1.50;1.40;;;23.90;78.60;;;;;;4979191;28;20938;-83
2023/07/07 03:57:17;;;;;;;1.70;1.43;;;23.90;78.60;;;;;;4979093;28;20815;-86
2023/07/07 03:59:44;;;;;;;1.63;1.53;;;23.90;78.50;;;;;;4978184;28;20457;-83
2023/07/07 04:02:13;;;;;;;1.80;1.70;;;23.90;78.70;;;;;;4976384;28;20453;-85
2023/07/07 04:04:41;;;;;;;1.37;1.27;;;23.90;78.70;;;;;;4976562;28;20456;-84
2023/07/07 04:07:16;;;;;;;1.50;1.40;;;23.90;78.80;;;;;;4976921;28;20844;-94
2023/07/07 04:09:43;;;;;;;1.60;1.40;;;23.90;78.60;;;;;;4976811;28;20440;-86
2023/07/07 04:12:11;;;;;;;1.80;1.60;;;23.90;78.70;;;;;;4977069;28;20448;-85
2023/07/07 04:14:37;;;;;;;4.33;1.30;;;23.90;78.70;;;;;;4977718;28;20447;-89
2023/07/07 04:17:05;;;;;;;1.50;1.20;;;23.90;78.90;;;;;;4977256;28;20451;-95
2023/07/07 04:19:33;;;;;;;1.30;1.17;;;23.90;78.70;;;;;;4976916;28;20534;-84
2023/07/07 04:22:00;;;;;;;2.30;2.10;;;23.90;78.80;;;;;;4979356;28;20447;-96
2023/07/07 04:24:27;;;;;;;4.10;3.30;;;23.90;78.80;;;;;;4982086;28;20456;-82
2023/07/07 04:26:53;;;;;;;3.50;3.00;;;23.90;76.70;;;;;;4978935;28;20478;-83
2023/07/07 04:29:20;;;;;;;2.87;2.63;;;23.70;76.50;;;;;;4980868;28;20464;-84
2023/07/07 04:31:49;;;;;;;5.80;2.50;;;23.40;76.60;;;;;;4979767;28;20455;-83
2023/07/07 04:34:16;;;;;;;3.57;3.27;;;23.20;77.20;;;;;;4979179;28;20446;-82
2023/07/07 04:36:45;;;;;;;5.27;3.60;;;23.10;77.90;;;;;;4979415;28;20452;-83
2023/07/07 04:39:12;;;;;;;2.87;2.67;;;22.80;80.70;;;;;;4980899;28;20443;-82
2023/07/07 04:41:38;;;;;;;4.97;3.70;;;22.70;83.40;;;;;;4978109;28;20489;-88
2023/07/07 04:44:06;;;;;;;5.57;2.87;;;;;;;;;;4977977;28;20446;-82
2023/07/07 04:46:34;;;;;;;7.40;3.40;;;;;;;;;;4978315;28;20488;-82
2023/07/07 04:49:06;;;;;;;3.17;2.87;;;;;;;;;;4977239;28;20940;-81
2023/07/07 04:51:33;;;;;;;3.20;2.90;;;;;;;;;;4982138;28;20503;-82
2023/07/07 04:54:02;;;;;;;2.90;2.33;;;;;;;;;;4977686;28;20456;-81
2023/07/07 04:56:29;;;;;;;3.50;2.50;;;;;;;;;;4980439;28;20428;-83
2023/07/07 04:58:58;;;;;;;3.43;3.13;;;;;;;;;;4985689;28;20475;-82
2023/07/07 05:01:26;;;;;;;5.73;3.60;;;;;;;;;;4982696;28;20469;-83
2023/07/07 05:03:54;;;;;;;3.13;2.73;;;;;;;;;;4983174;28;20450;-88
2023/07/07 05:06:22;;;;;;;4.93;3.07;;;22.10;95.00;;;;;;4976243;28;20460;-88
2023/07/07 06:36:02;;;;;;;2.87;2.50;;;23.10;81.60;;;;;;4975221;28;20873;-84
2023/07/07 06:38:30;;;;;;;3.67;2.77;;;23.10;81.40;;;;;;4958818;28;20449;-83
2023/07/07 06:40:57;;;;;;;2.63;2.10;;;23.20;81.50;;;;;;4958629;29;20506;-82
2023/07/07 06:43:24;;;;;;;5.53;2.23;;;23.20;81.40;;;;;;4958847;29;20459;-81
2023/07/07 06:45:55;;;;;;;2.93;2.63;;;23.30;81.30;;;;;;4958523;29;20455;-81
2023/07/07 06:48:22;;;;;;;3.00;2.03;;;23.30;81.30;;;;;;4958590;29;20451;-82
2023/07/07 06:50:50;;;;;;;2.10;1.90;;;23.30;81.20;;;;;;4958746;29;20461;-83
2023/07/07 06:53:17;;;;;;;2.20;2.00;;;23.30;81.10;;;;;;4958521;29;20537;-82
2023/07/07 06:55:45;;;;;;;3.53;1.90;;;23.30;81.00;;;;;;4958612;29;20445;-81
2023/07/07 06:58:13;;;;;;;2.30;2.03;;;23.30;80.90;;;;;;4958415;28;21004;-83
2023/07/07 07:00:40;;;;;;;2.43;2.00;;;23.30;80.90;;;;;;4958513;29;20877;-83
2023/07/07 07:03:07;;;;;;;2.50;2.13;;;23.40;80.90;;;;;;4958405;29;20456;-82
2023/07/07 07:05:34;;;;;;;5.87;2.60;;;23.40;80.80;;;;;;4958419;29;20506;-82
2023/07/07 07:08:01;;;;;;;2.90;2.40;;;23.40;80.60;;;;;;4958788;29;20449;-86
2023/07/07 07:10:44;;;;;;;2.93;2.17;;;23.40;80.70;;;;;;4958562;29;20534;-88
2023/07/07 07:13:14;;;;;;;2.20;2.00;;;23.40;80.40;;;;;;4957180;29;20821;-88
2023/07/07 07:15:41;;;;;;;2.80;1.97;;;23.40;80.50;;;;;;4958508;29;20440;-83
2023/07/07 07:18:09;;;;;;;2.33;2.10;;;23.60;80.60;;;;;;4958185;29;20454;-83
2023/07/07 07:20:36;;;;;;;2.80;2.30;;;23.40;80.40;;;;;;4958313;29;20571;-83
2023/07/07 07:23:03;;;;;;;4.10;2.23;;;23.40;80.30;;;;;;4958171;29;20456;-85
2023/07/07 07:25:29;;;;;;;5.93;2.10;;;23.60;80.40;;;;;;4958044;29;20542;-83
2023/07/07 07:27:56;;;;;;;3.80;2.00;;;23.60;80.40;;;;;;4957540;28;20472;-84
2023/07/07 07:30:25;;;;;;;3.13;1.90;;;23.50;80.40;;;;;;4957746;29;20441;-84
2023/07/07 07:32:51;;;;;;;2.30;2.10;;;23.50;80.40;;;;;;4958025;29;20449;-84
2023/07/07 07:35:18;;;;;;;2.40;2.20;;;23.70;80.60;;;;;;4957768;29;20439;-84
2023/07/07 07:37:45;;;;;;;2.20;2.00;;;23.50;80.30;;;;;;4957091;28;20481;-90
2023/07/07 07:40:12;;;;;;;2.20;1.90;;;23.50;80.30;;;;;;4938600;29;20444;-86
2023/07/07 07:42:40;;;;;;;2.70;1.90;;;23.50;80.20;;;;;;4938937;29;20457;-82
2023/07/07 07:45:09;;;;;;;2.93;2.00;;;23.50;80.20;;;;;;4938770;29;20455;-83
2023/07/07 07:47:37;;;;;;;3.30;2.00;;;23.50;80.30;;;;;;4939285;29;20446;-83
2023/07/07 07:50:06;;;;;;;2.13;1.90;;;23.60;80.40;;;;;;4943958;29;20557;-82
2023/07/07 07:52:32;;;;;;;3.00;2.00;;;23.50;80.20;;;;;;4947580;29;20445;-83
2023/07/07 07:54:59;;;;;;;2.17;1.97;;;23.60;80.40;;;;;;4949473;29;20526;-81
2023/07/07 07:57:26;;;;;;;4.30;2.60;;;23.60;80.40;;;;;;4943265;29;20465;-82
2023/07/07 07:59:53;;;;;;;1.73;1.63;;;23.60;80.40;;;;;;4940047;29;20509;-84
2023/07/07 08:02:20;;;;;;;2.80;2.20;;;23.60;80.40;;;;;;4938765;29;20496;-83
2023/07/07 08:04:48;;;;;;;2.30;2.10;;;23.60;80.40;;;;;;4939307;29;20460;-83
2023/07/07 08:07:15;;;;;;;3.10;1.67;;;23.60;80.40;;;;;;4938694;29;20454;-83
2023/07/07 08:09:41;;;;;;;1.90;1.80;;;23.60;80.40;;;;;;4938973;29;20802;-84
2023/07/07 08:12:10;;;;;;;1.90;1.70;;;23.60;80.40;;;;;;4938364;29;20560;-86
2023/07/07 08:14:37;;;;;;;2.20;1.80;;;23.60;80.40;;;;;;4938352;29;20451;-84
2023/07/07 08:17:08;;;;;;;2.20;1.90;;;23.70;80.40;;;;;;4938191;29;20454;-85
2023/07/07 08:19:36;;;;;;;2.50;2.17;;;23.60;80.20;;;;;;4938446;29;20456;-84
2023/07/07 08:22:07;;;;;;;1.50;1.40;;;23.60;80.30;;;;;;4938166;29;20994;-83
2023/07/07 08:24:37;;;;;;;2.50;1.70;;;23.60;80.40;;;;;;4938202;29;20526;-86
2023/07/07 08:27:05;;;;;;;1.70;1.60;;;23.70;80.40;;;;;;4937881;29;20500;-84
2023/07/07 08:29:31;;;;;;;1.77;1.67;;;23.70;80.40;;;;;;4937824;29;20486;-85
2023/07/07 08:31:58;;;;;;;1.87;1.67;;;23.70;80.30;;;;;;4937875;29;20457;-83
2023/07/07 08:34:25;;;;;;;1.53;1.43;;;23.70;80.30;;;;;;4937903;29;20451;-83
2023/07/07 08:36:54;;;;;;;2.13;1.77;;;23.70;80.30;;;;;;4937845;28;20486;-83
2023/07/07 08:39:22;;;;;;;1.80;1.53;;;23.70;80.30;;;;;;4950097;29;20818;-82
2023/07/07 08:41:52;;;;;;;1.50;1.40;;;23.70;80.30;;;;;;4957001;29;20501;-84
2023/07/07 08:44:21;;;;;;;1.60;1.50;;;23.70;80.30;;;;;;4949717;29;20465;-84
2023/07/07 08:47:13;;;;;;;1.93;1.73;;;23.70;80.30;;;;;;4948894;29;20982;-83
2023/07/07 08:49:48;;;;;;;1.73;1.43;;;23.70;80.30;;;;;;4943565;29;20466;-85
2023/07/07 08:52:28;;;;;;;2.43;1.50;;;23.70;80.10;;;;;;4957019;29;20443;-85
2023/07/07 08:55:04;;;;;;;1.70;1.60;;;23.70;80.10;;;;;;4957366;29;20453;-86
2023/07/07 08:57:38;;;;;;;1.93;1.77;;;23.70;80.10;;;;;;4956842;28;20568;-87
2023/07/07 09:00:16;;;;;;;1.47;1.37;;;23.70;80.20;;;;;;4956831;29;20434;-89
2023/07/07 09:02:57;;;;;;;1.70;1.60;;;23.70;80.20;;;;;;4956389;29;20489;-86
2023/07/07 09:05:39;;;;;;;2.07;1.60;;;23.70;80.20;;;;;;4956237;29;20488;-89
2023/07/07 09:08:13;;;;;;;2.93;1.40;;;23.70;80.10;;;;;;4957617;29;20451;-84
2023/07/07 09:10:54;;;;;;;1.50;1.40;;;23.70;80.10;;;;;;4956446;29;20452;-92
2023/07/07 09:13:28;;;;;;;2.77;1.50;;;23.70;80.10;;;;;;4956625;29;20542;-84
2023/07/07 09:16:11;;;;;;;2.23;1.80;;;23.70;80.20;;;;;;4956426;29;20801;-85
2023/07/07 09:18:43;;;;;;;2.37;1.40;;;23.70;80.30;;;;;;4956470;29;20518;-85
2023/07/07 09:21:22;;;;;;;1.60;1.50;;;23.70;80.40;;;;;;4956475;28;20838;-85
2023/07/07 09:23:51;;;;;;;1.60;1.50;;;23.70;80.30;;;;;;4956288;29;20440;-86
2023/07/07 09:26:26;;;;;;;1.70;1.60;;;23.70;80.20;;;;;;4955431;29;20462;-86
2023/07/07 09:28:56;;;;;;;2.80;2.17;;;23.80;80.40;;;;;;4955384;28;20469;-85
2023/07/07 09:31:29;;;;;;;2.00;1.40;;;23.70;80.30;;;;;;4955770;29;20470;-92
2023/07/07 09:34:02;;;;;;;2.57;1.80;;;23.70;80.20;;;;;;4955921;29;20445;-85
2023/07/07 09:36:33;;;;;;;2.70;1.80;;;23.70;80.30;;;;;;4955923;28;20488;-92
2023/07/07 09:39:14;;;;;;;1.50;1.40;;;23.70;80.30;;;;;;4956033;29;20944;-89
2023/07/07 09:41:55;;;;;;;1.50;1.40;;;23.80;80.40;;;;;;4956162;29;20828;-85
2023/07/07 09:44:40;;;;;;;2.00;1.67;;;23.80;80.40;;;;;;4956878;29;20455;-96
2023/07/07 09:47:20;;;;;;;3.37;1.70;;;23.80;80.50;;;;;;4956520;29;20502;-88
2023/07/07 09:49:54;;;;;;;4.40;1.60;;;23.80;80.40;;;;;;4956200;29;20801;-83
2023/07/07 09:52:45;;;;;;;1.60;1.50;;;23.80;80.50;;;;;;4956050;29;20440;-96
2023/07/07 09:55:17;;;;;;;1.60;1.50;;;23.80;80.50;;;;;;4952351;29;20465;-82
2023/07/07 09:57:51;;;;;;;1.60;1.50;;;23.80;80.50;;;;;;4955937;28;20986;-88
2023/07/07 10:07:08;;;;;;;2.30;1.53;;;23.80;80.70;;;;;;4879123;29;20459;-84
2023/07/07 10:09:35;;;;;;;1.77;1.43;;;23.70;80.80;;;;;;4878031;29;20450;-92
2023/07/07 10:12:01;;;;;;;5.10;1.50;;;23.70;80.90;;;;;;4898614;29;20441;-86
2023/07/07 10:14:31;;;;;;;3.03;1.47;;;23.80;80.80;;;;;;4955268;29;20937;-83
2023/07/07 10:17:06;;;;;;;2.70;1.67;;;23.80;81.60;;;;;;4955128;29;20441;-83
2023/07/07 10:19:40;;;;;;;2.30;1.50;;;23.80;80.70;;;;;;4955305;29;20443;-93
2023/07/07 10:22:08;;;;;;;4.47;1.63;;;23.80;80.90;;;;;;4956093;29;20822;-89
2023/07/07 10:24:36;;;;;;;2.37;1.30;;;23.80;80.90;;;;;;4955230;29;20450;-84
2023/07/07 10:27:03;;;;;;;1.77;1.67;;;23.80;81.00;;;;;;4955436;28;20985;-91
2023/07/07 10:29:36;;;;;;;1.97;1.70;;;23.80;81.10;;;;;;4968255;28;20928;-84
2023/07/07 10:32:04;;;;;;;3.30;1.90;;;23.80;81.20;;;;;;4954828;29;20501;-87
2023/07/07 10:34:33;;;;;;;2.57;1.50;;;23.80;81.20;;;;;;4954828;29;20460;-87
2023/07/07 10:40:28;;;;;;;4.23;1.67;;;23.80;81.10;;;;;;4954929;28;20886;-85
2023/07/07 10:42:56;;;;;;;2.20;1.60;;;23.80;81.20;;;;;;4937865;29;20577;-92
2023/07/07 10:49:20;;;;;;;1.73;1.63;;;23.90;81.40;;;;;;4906200;29;20447;-88
